sensor_id;sensor_type;location;lat;lon;timestamp;temperature;humidity
25128;DHT22;13107;51.304;6.866;2022-08-19T00:02:12;16.00;99.90
25128;DHT22;13107;51.304;6.866;2022-08-19T00:06:14;16.00;99.90
25128;DHT22;13107;51.304;6.866;2022-08-19T00:10:21;16.00;99.90
25128;DHT22;13107;51.304;6.866;2022-08-19T00:14:24;15.90;99.90
25128;DHT22;13107;51.304;6.866;2022-08-19T00:18:26;15.90;99.90
25128;DHT22;13107;51.304;6.866;2022-08-19T00:22:28;15.90;99.90
25128;DHT22;13107;51.304;6.866;2022-08-19T00:26:30;15.90;99.90
25128;DHT22;13107;51.304;6.866;2022-08-19T00:30:32;15.90;99.90
25128;DHT22;13107;51.304;6.866;2022-08-19T00:34:34;15.80;99.90
25128;DHT22;13107;51.304;6.866;2022-08-19T00:38:37;15.80;99.90
25128;DHT22;13107;51.304;6.866;2022-08-19T00:42:41;15.70;99.90
25128;DHT22;13107;51.304;6.866;2022-08-19T00:46:45;15.70;99.90
25128;DHT22;13107;51.304;6.866;2022-08-19T00:50:58;15.70;99.90
25128;DHT22;13107;51.304;6.866;2022-08-19T00:55:01;15.60;99.90
25128;DHT22;13107;51.304;6.866;2022-08-19T00:59:04;15.60;99.90
25128;DHT22;13107;51.304;6.866;2022-08-19T01:03:12;15.60;99.90
25128;DHT22;13107;51.304;6.866;2022-08-19T01:07:14;15.50;99.90
25128;DHT22;13107;51.304;6.866;2022-08-19T01:11:20;15.50;99.90
25128;DHT22;13107;51.304;6.866;2022-08-19T01:15:30;15.40;99.90
25128;DHT22;13107;51.304;6.866;2022-08-19T01:19:38;15.40;99.90
25128;DHT22;13107;51.304;6.866;2022-08-19T01:23:45;15.40;99.90
25128;DHT22;13107;51.304;6.866;2022-08-19T01:27:49;15.40;99.90
25128;DHT22;13107;51.304;6.866;2022-08-19T01:32:13;15.30;99.90
25128;DHT22;13107;51.304;6.866;2022-08-19T01:36:42;15.30;99.90
25128;DHT22;13107;51.304;6.866;2022-08-19T01:40:47;15.20;99.90
25128;DHT22;13107;51.304;6.866;2022-08-19T01:44:48;15.20;99.90
25128;DHT22;13107;51.304;6.866;2022-08-19T01:48:50;15.10;99.90
25128;DHT22;13107;51.304;6.866;2022-08-19T01:53:12;15.10;99.90
25128;DHT22;13107;51.304;6.866;2022-08-19T01:57:15;15.10;99.90
25128;DHT22;13107;51.304;6.866;2022-08-19T02:01:17;15.00;99.90
25128;DHT22;13107;51.304;6.866;2022-08-19T02:05:19;15.00;99.90
25128;DHT22;13107;51.304;6.866;2022-08-19T02:09:22;15.00;99.90
25128;DHT22;13107;51.304;6.866;2022-08-19T02:13:24;14.90;99.90
25128;DHT22;13107;51.304;6.866;2022-08-19T02:17:27;14.90;99.90
25128;DHT22;13107;51.304;6.866;2022-08-19T02:21:30;14.90;99.90
25128;DHT22;13107;51.304;6.866;2022-08-19T02:25:32;14.90;99.90
25128;DHT22;13107;51.304;6.866;2022-08-19T02:29:34;14.90;99.90
25128;DHT22;13107;51.304;6.866;2022-08-19T02:33:36;14.80;99.90
25128;DHT22;13107;51.304;6.866;2022-08-19T02:37:38;14.80;99.90
25128;DHT22;13107;51.304;6.866;2022-08-19T02:41:58;14.80;99.90
25128;DHT22;13107;51.304;6.866;2022-08-19T02:46:02;14.80;99.90
25128;DHT22;13107;51.304;6.866;2022-08-19T02:50:05;14.80;99.90
25128;DHT22;13107;51.304;6.866;2022-08-19T02:54:08;14.70;99.90
25128;DHT22;13107;51.304;6.866;2022-08-19T02:58:10;14.70;99.90
25128;DHT22;13107;51.304;6.866;2022-08-19T03:02:12;14.70;99.90
25128;DHT22;13107;51.304;6.866;2022-08-19T03:06:15;14.70;99.90
25128;DHT22;13107;51.304;6.866;2022-08-19T03:10:17;14.70;99.90
25128;DHT22;13107;51.304;6.866;2022-08-19T03:14:19;14.70;99.90
25128;DHT22;13107;51.304;6.866;2022-08-19T03:18:21;14.60;99.90
25128;DHT22;13107;51.304;6.866;2022-08-19T03:22:23;14.60;99.90
25128;DHT22;13107;51.304;6.866;2022-08-19T03:26:27;14.60;99.90
25128;DHT22;13107;51.304;6.866;2022-08-19T03:30:29;14.70;99.90
25128;DHT22;13107;51.304;6.866;2022-08-19T03:34:32;14.60;99.90
25128;DHT22;13107;51.304;6.866;2022-08-19T03:38:43;14.60;99.90
25128;DHT22;13107;51.304;6.866;2022-08-19T03:42:46;14.60;99.90
25128;DHT22;13107;51.304;6.866;2022-08-19T03:46:58;14.50;99.90
25128;DHT22;13107;51.304;6.866;2022-08-19T03:51:00;14.60;99.90
25128;DHT22;13107;51.304;6.866;2022-08-19T03:55:03;14.50;99.90
25128;DHT22;13107;51.304;6.866;2022-08-19T03:59:08;14.50;99.90
25128;DHT22;13107;51.304;6.866;2022-08-19T04:03:18;14.50;99.90
25128;DHT22;13107;51.304;6.866;2022-08-19T04:07:27;14.50;99.90
25128;DHT22;13107;51.304;6.866;2022-08-19T04:11:50;14.50;99.90
25128;DHT22;13107;51.304;6.866;2022-08-19T04:15:55;14.50;99.90
25128;DHT22;13107;51.304;6.866;2022-08-19T04:19:56;14.50;99.90
25128;DHT22;13107;51.304;6.866;2022-08-19T04:23:59;14.50;99.90
25128;DHT22;13107;51.304;6.866;2022-08-19T04:28:00;14.60;99.90
25128;DHT22;13107;51.304;6.866;2022-08-19T04:32:03;14.60;99.90
25128;DHT22;13107;51.304;6.866;2022-08-19T04:36:19;14.50;99.90
25128;DHT22;13107;51.304;6.866;2022-08-19T04:40:21;14.50;99.90
25128;DHT22;13107;51.304;6.866;2022-08-19T04:44:42;14.50;99.90
25128;DHT22;13107;51.304;6.866;2022-08-19T04:48:47;14.50;99.90
25128;DHT22;13107;51.304;6.866;2022-08-19T04:52:51;14.50;99.90
25128;DHT22;13107;51.304;6.866;2022-08-19T04:56:54;14.50;99.90
25128;DHT22;13107;51.304;6.866;2022-08-19T05:00:55;14.50;99.90
25128;DHT22;13107;51.304;6.866;2022-08-19T05:04:58;14.50;99.90
25128;DHT22;13107;51.304;6.866;2022-08-19T05:09:04;14.50;99.90
25128;DHT22;13107;51.304;6.866;2022-08-19T05:13:06;14.60;99.90
25128;DHT22;13107;51.304;6.866;2022-08-19T05:17:11;14.60;99.90
25128;DHT22;13107;51.304;6.866;2022-08-19T05:21:28;14.70;99.90
25128;DHT22;13107;51.304;6.866;2022-08-19T05:25:50;14.70;99.90
25128;DHT22;13107;51.304;6.866;2022-08-19T05:29:53;14.80;99.90
25128;DHT22;13107;51.304;6.866;2022-08-19T05:33:54;14.90;99.90
25128;DHT22;13107;51.304;6.866;2022-08-19T05:37:57;15.00;99.90
25128;DHT22;13107;51.304;6.866;2022-08-19T05:42:02;15.10;99.90
25128;DHT22;13107;51.304;6.866;2022-08-19T05:46:05;15.20;99.90
25128;DHT22;13107;51.304;6.866;2022-08-19T05:50:08;15.30;99.90
25128;DHT22;13107;51.304;6.866;2022-08-19T05:54:10;15.50;99.90
25128;DHT22;13107;51.304;6.866;2022-08-19T05:58:14;15.60;99.90
25128;DHT22;13107;51.304;6.866;2022-08-19T06:02:16;15.90;99.90
25128;DHT22;13107;51.304;6.866;2022-08-19T06:06:19;16.20;99.90
25128;DHT22;13107;51.304;6.866;2022-08-19T06:10:21;16.50;99.90
25128;DHT22;13107;51.304;6.866;2022-08-19T06:14:25;16.80;99.90
25128;DHT22;13107;51.304;6.866;2022-08-19T06:18:28;16.90;99.90
25128;DHT22;13107;51.304;6.866;2022-08-19T06:22:30;17.10;99.90
25128;DHT22;13107;51.304;6.866;2022-08-19T06:26:33;17.30;99.90
25128;DHT22;13107;51.304;6.866;2022-08-19T06:30:36;17.40;99.90
25128;DHT22;13107;51.304;6.866;2022-08-19T06:34:38;17.40;99.90
25128;DHT22;13107;51.304;6.866;2022-08-19T06:38:40;17.60;99.90
25128;DHT22;13107;51.304;6.866;2022-08-19T06:42:45;17.60;99.90
25128;DHT22;13107;51.304;6.866;2022-08-19T06:46:56;17.70;99.90
25128;DHT22;13107;51.304;6.866;2022-08-19T06:50:58;17.70;99.90
25128;DHT22;13107;51.304;6.866;2022-08-19T06:55:01;17.70;99.90
25128;DHT22;13107;51.304;6.866;2022-08-19T06:59:09;17.80;99.90
25128;DHT22;13107;51.304;6.866;2022-08-19T07:03:12;18.00;99.90
25128;DHT22;13107;51.304;6.866;2022-08-19T07:07:14;18.20;99.90
25128;DHT22;13107;51.304;6.866;2022-08-19T07:11:21;18.30;99.90
25128;DHT22;13107;51.304;6.866;2022-08-19T07:15:24;18.60;99.90
25128;DHT22;13107;51.304;6.866;2022-08-19T07:19:27;18.60;99.90
25128;DHT22;13107;51.304;6.866;2022-08-19T07:23:30;18.90;99.90
25128;DHT22;13107;51.304;6.866;2022-08-19T07:27:32;18.90;99.90
25128;DHT22;13107;51.304;6.866;2022-08-19T07:31:35;18.90;99.90
25128;DHT22;13107;51.304;6.866;2022-08-19T07:35:45;18.90;99.90
25128;DHT22;13107;51.304;6.866;2022-08-19T07:39:47;19.00;99.90
25128;DHT22;13107;51.304;6.866;2022-08-19T07:43:50;19.10;99.90
25128;DHT22;13107;51.304;6.866;2022-08-19T07:47:52;19.30;99.90
25128;DHT22;13107;51.304;6.866;2022-08-19T07:52:04;19.40;99.90
25128;DHT22;13107;51.304;6.866;2022-08-19T07:56:07;19.70;99.90
25128;DHT22;13107;51.304;6.866;2022-08-19T08:00:09;19.90;99.90
25128;DHT22;13107;51.304;6.866;2022-08-19T08:04:11;20.20;99.90
25128;DHT22;13107;51.304;6.866;2022-08-19T08:08:31;20.50;99.90
25128;DHT22;13107;51.304;6.866;2022-08-19T08:12:53;20.90;99.90
25128;DHT22;13107;51.304;6.866;2022-08-19T08:17:11;21.00;99.90
25128;DHT22;13107;51.304;6.866;2022-08-19T08:21:13;21.30;99.90
25128;DHT22;13107;51.304;6.866;2022-08-19T08:25:20;21.40;99.90
25128;DHT22;13107;51.304;6.866;2022-08-19T08:29:23;21.70;99.90
25128;DHT22;13107;51.304;6.866;2022-08-19T08:33:28;21.90;99.90
25128;DHT22;13107;51.304;6.866;2022-08-19T08:37:36;22.10;99.90
25128;DHT22;13107;51.304;6.866;2022-08-19T08:41:51;22.20;99.90
25128;DHT22;13107;51.304;6.866;2022-08-19T08:46:07;22.00;99.90
25128;DHT22;13107;51.304;6.866;2022-08-19T08:50:24;22.00;99.90
25128;DHT22;13107;51.304;6.866;2022-08-19T08:54:32;22.10;99.90
25128;DHT22;13107;51.304;6.866;2022-08-19T08:59:00;22.70;99.90
25128;DHT22;13107;51.304;6.866;2022-08-19T09:03:06;22.90;99.90
25128;DHT22;13107;51.304;6.866;2022-08-19T09:07:31;23.20;99.90
25128;DHT22;13107;51.304;6.866;2022-08-19T09:16:16;23.80;99.90
25128;DHT22;13107;51.304;6.866;2022-08-19T09:20:23;24.10;99.90
25128;DHT22;13107;51.304;6.866;2022-08-19T09:24:27;24.70;99.90
25128;DHT22;13107;51.304;6.866;2022-08-19T09:28:32;24.80;99.90
25128;DHT22;13107;51.304;6.866;2022-08-19T09:32:34;25.00;99.90
25128;DHT22;13107;51.304;6.866;2022-08-19T09:36:36;25.00;99.90
25128;DHT22;13107;51.304;6.866;2022-08-19T09:40:54;25.40;99.90
25128;DHT22;13107;51.304;6.866;2022-08-19T09:44:56;24.90;99.90
25128;DHT22;13107;51.304;6.866;2022-08-19T09:49:09;25.10;99.90
25128;DHT22;13107;51.304;6.866;2022-08-19T09:53:19;25.40;99.90
25128;DHT22;13107;51.304;6.866;2022-08-19T09:57:26;25.80;99.90
25128;DHT22;13107;51.304;6.866;2022-08-19T10:01:30;25.70;99.90
25128;DHT22;13107;51.304;6.866;2022-08-19T10:05:32;25.70;99.90
25128;DHT22;13107;51.304;6.866;2022-08-19T10:10:12;25.80;99.90
25128;DHT22;13107;51.304;6.866;2022-08-19T10:14:14;25.90;99.90
25128;DHT22;13107;51.304;6.866;2022-08-19T10:18:17;26.30;99.90
25128;DHT22;13107;51.304;6.866;2022-08-19T10:22:20;26.50;99.90
25128;DHT22;13107;51.304;6.866;2022-08-19T10:26:27;26.90;99.90
25128;DHT22;13107;51.304;6.866;2022-08-19T10:30:29;27.30;99.90
25128;DHT22;13107;51.304;6.866;2022-08-19T10:34:31;27.10;99.90
25128;DHT22;13107;51.304;6.866;2022-08-19T10:38:33;26.50;99.90
25128;DHT22;13107;51.304;6.866;2022-08-19T10:42:35;25.80;99.90
25128;DHT22;13107;51.304;6.866;2022-08-19T10:46:40;25.00;99.90
25128;DHT22;13107;51.304;6.866;2022-08-19T10:50:48;25.00;99.90
25128;DHT22;13107;51.304;6.866;2022-08-19T10:55:09;25.40;99.90
25128;DHT22;13107;51.304;6.866;2022-08-19T10:59:30;26.00;99.90
25128;DHT22;13107;51.304;6.866;2022-08-19T11:03:36;25.80;99.90
25128;DHT22;13107;51.304;6.866;2022-08-19T11:07:39;25.30;99.90
25128;DHT22;13107;51.304;6.866;2022-08-19T11:11:42;24.90;99.90
25128;DHT22;13107;51.304;6.866;2022-08-19T11:15:44;24.80;99.90
25128;DHT22;13107;51.304;6.866;2022-08-19T11:19:49;24.50;99.90
25128;DHT22;13107;51.304;6.866;2022-08-19T11:23:54;24.60;99.90
25128;DHT22;13107;51.304;6.866;2022-08-19T11:27:56;25.10;99.90
25128;DHT22;13107;51.304;6.866;2022-08-19T11:31:58;25.50;99.90
25128;DHT22;13107;51.304;6.866;2022-08-19T11:36:03;26.10;99.90
25128;DHT22;13107;51.304;6.866;2022-08-19T11:40:07;26.40;99.90
25128;DHT22;13107;51.304;6.866;2022-08-19T11:44:09;26.60;99.90
25128;DHT22;13107;51.304;6.866;2022-08-19T11:48:11;26.40;99.90
25128;DHT22;13107;51.304;6.866;2022-08-19T11:52:12;26.20;99.90
25128;DHT22;13107;51.304;6.866;2022-08-19T11:56:14;26.50;99.90
25128;DHT22;13107;51.304;6.866;2022-08-19T12:00:16;26.90;99.90
25128;DHT22;13107;51.304;6.866;2022-08-19T12:04:18;27.00;99.90
25128;DHT22;13107;51.304;6.866;2022-08-19T12:08:21;26.80;99.90
25128;DHT22;13107;51.304;6.866;2022-08-19T12:12:22;26.90;99.90
25128;DHT22;13107;51.304;6.866;2022-08-19T12:16:27;26.40;99.90
25128;DHT22;13107;51.304;6.866;2022-08-19T12:20:43;26.30;99.90
25128;DHT22;13107;51.304;6.866;2022-08-19T12:25:05;26.20;99.90
25128;DHT22;13107;51.304;6.866;2022-08-19T12:29:07;26.40;99.90
25128;DHT22;13107;51.304;6.866;2022-08-19T12:33:09;26.60;99.90
25128;DHT22;13107;51.304;6.866;2022-08-19T12:37:11;27.00;99.90
25128;DHT22;13107;51.304;6.866;2022-08-19T12:41:15;27.30;99.90
25128;DHT22;13107;51.304;6.866;2022-08-19T12:45:19;27.60;99.90
25128;DHT22;13107;51.304;6.866;2022-08-19T12:49:21;27.80;99.90
25128;DHT22;13107;51.304;6.866;2022-08-19T12:53:43;27.90;99.90
25128;DHT22;13107;51.304;6.866;2022-08-19T12:57:46;27.90;99.90
25128;DHT22;13107;51.304;6.866;2022-08-19T13:01:48;27.70;99.90
25128;DHT22;13107;51.304;6.866;2022-08-19T13:05:50;27.60;99.90
25128;DHT22;13107;51.304;6.866;2022-08-19T13:09:52;27.20;99.90
25128;DHT22;13107;51.304;6.866;2022-08-19T13:13:54;26.50;99.90
25128;DHT22;13107;51.304;6.866;2022-08-19T13:17:57;26.60;99.90
25128;DHT22;13107;51.304;6.866;2022-08-19T13:21:59;27.00;99.90
25128;DHT22;13107;51.304;6.866;2022-08-19T13:26:06;27.40;99.90
25128;DHT22;13107;51.304;6.866;2022-08-19T13:30:11;27.10;99.90
25128;DHT22;13107;51.304;6.866;2022-08-19T13:34:34;27.30;99.90
25128;DHT22;13107;51.304;6.866;2022-08-19T13:38:37;27.40;99.60
25128;DHT22;13107;51.304;6.866;2022-08-19T13:42:39;27.80;99.90
25128;DHT22;13107;51.304;6.866;2022-08-19T13:46:41;28.20;99.80
25128;DHT22;13107;51.304;6.866;2022-08-19T13:50:46;28.10;97.60
25128;DHT22;13107;51.304;6.866;2022-08-19T13:54:49;28.10;96.60
25128;DHT22;13107;51.304;6.866;2022-08-19T13:58:51;28.10;95.70
25128;DHT22;13107;51.304;6.866;2022-08-19T14:02:54;28.00;95.40
25128;DHT22;13107;51.304;6.866;2022-08-19T14:06:57;27.60;95.80
25128;DHT22;13107;51.304;6.866;2022-08-19T14:10:59;27.50;95.90
25128;DHT22;13107;51.304;6.866;2022-08-19T14:15:08;27.50;96.10
25128;DHT22;13107;51.304;6.866;2022-08-19T14:19:10;27.50;96.50
25128;DHT22;13107;51.304;6.866;2022-08-19T14:23:12;27.50;96.70
25128;DHT22;13107;51.304;6.866;2022-08-19T14:27:15;27.80;95.80
25128;DHT22;13107;51.304;6.866;2022-08-19T14:31:17;28.30;95.70
25128;DHT22;13107;51.304;6.866;2022-08-19T14:35:21;28.90;92.80
25128;DHT22;13107;51.304;6.866;2022-08-19T14:39:23;28.90;92.70
25128;DHT22;13107;51.304;6.866;2022-08-19T14:43:25;28.20;93.00
25128;DHT22;13107;51.304;6.866;2022-08-19T14:47:26;28.00;94.40
25128;DHT22;13107;51.304;6.866;2022-08-19T14:51:29;28.00;94.00
25128;DHT22;13107;51.304;6.866;2022-08-19T14:55:31;27.80;94.80
25128;DHT22;13107;51.304;6.866;2022-08-19T14:59:34;27.40;96.70
25128;DHT22;13107;51.304;6.866;2022-08-19T15:03:37;26.90;97.90
25128;DHT22;13107;51.304;6.866;2022-08-19T15:07:39;26.40;98.90
25128;DHT22;13107;51.304;6.866;2022-08-19T15:11:42;26.40;99.80
25128;DHT22;13107;51.304;6.866;2022-08-19T15:15:44;26.50;99.30
25128;DHT22;13107;51.304;6.866;2022-08-19T15:19:46;26.90;99.00
25128;DHT22;13107;51.304;6.866;2022-08-19T15:23:50;27.10;97.60
25128;DHT22;13107;51.304;6.866;2022-08-19T15:27:52;26.90;95.90
25128;DHT22;13107;51.304;6.866;2022-08-19T15:31:54;26.80;95.90
25128;DHT22;13107;51.304;6.866;2022-08-19T15:35:59;26.70;96.30
25128;DHT22;13107;51.304;6.866;2022-08-19T15:40:01;26.60;96.90
25128;DHT22;13107;51.304;6.866;2022-08-19T15:44:06;26.50;96.90
25128;DHT22;13107;51.304;6.866;2022-08-19T15:48:10;26.50;97.80
25128;DHT22;13107;51.304;6.866;2022-08-19T15:52:12;26.20;97.90
25128;DHT22;13107;51.304;6.866;2022-08-19T15:56:14;26.10;97.70
25128;DHT22;13107;51.304;6.866;2022-08-19T16:00:16;26.20;97.80
25128;DHT22;13107;51.304;6.866;2022-08-19T16:04:37;26.20;97.70
25128;DHT22;13107;51.304;6.866;2022-08-19T16:09:05;25.80;97.50
25128;DHT22;13107;51.304;6.866;2022-08-19T16:13:07;25.90;97.90
25128;DHT22;13107;51.304;6.866;2022-08-19T16:17:11;25.90;96.70
25128;DHT22;13107;51.304;6.866;2022-08-19T16:21:15;25.70;97.10
25128;DHT22;13107;51.304;6.866;2022-08-19T16:25:19;25.70;97.60
25128;DHT22;13107;51.304;6.866;2022-08-19T16:29:27;25.50;97.90
25128;DHT22;13107;51.304;6.866;2022-08-19T16:33:40;25.30;99.00
25128;DHT22;13107;51.304;6.866;2022-08-19T16:37:42;25.10;98.90
25128;DHT22;13107;51.304;6.866;2022-08-19T16:41:45;25.00;98.90
25128;DHT22;13107;51.304;6.866;2022-08-19T16:45:48;24.90;99.90
25128;DHT22;13107;51.304;6.866;2022-08-19T16:49:51;25.00;99.90
25128;DHT22;13107;51.304;6.866;2022-08-19T16:53:56;24.90;99.90
25128;DHT22;13107;51.304;6.866;2022-08-19T16:57:57;24.70;99.90
25128;DHT22;13107;51.304;6.866;2022-08-19T17:02:04;25.00;99.90
25128;DHT22;13107;51.304;6.866;2022-08-19T17:06:19;24.90;99.90
25128;DHT22;13107;51.304;6.866;2022-08-19T17:10:21;24.90;99.90
25128;DHT22;13107;51.304;6.866;2022-08-19T17:14:24;24.90;99.90
25128;DHT22;13107;51.304;6.866;2022-08-19T17:18:26;24.90;99.90
25128;DHT22;13107;51.304;6.866;2022-08-19T17:22:32;24.80;99.90
25128;DHT22;13107;51.304;6.866;2022-08-19T17:26:37;24.80;99.90
25128;DHT22;13107;51.304;6.866;2022-08-19T17:30:39;24.70;99.90
25128;DHT22;13107;51.304;6.866;2022-08-19T17:34:41;24.60;99.90
25128;DHT22;13107;51.304;6.866;2022-08-19T17:38:44;24.30;99.90
25128;DHT22;13107;51.304;6.866;2022-08-19T17:42:46;24.20;99.90
25128;DHT22;13107;51.304;6.866;2022-08-19T17:46:48;24.00;99.90
25128;DHT22;13107;51.304;6.866;2022-08-19T17:50:50;23.90;99.90
25128;DHT22;13107;51.304;6.866;2022-08-19T17:54:52;23.70;99.90
25128;DHT22;13107;51.304;6.866;2022-08-19T17:58:54;23.60;99.90
25128;DHT22;13107;51.304;6.866;2022-08-19T18:03:03;23.50;99.90
25128;DHT22;13107;51.304;6.866;2022-08-19T18:07:08;23.50;99.90
25128;DHT22;13107;51.304;6.866;2022-08-19T18:11:10;23.40;99.90
25128;DHT22;13107;51.304;6.866;2022-08-19T18:15:12;23.30;99.90
25128;DHT22;13107;51.304;6.866;2022-08-19T18:19:14;23.30;99.90
25128;DHT22;13107;51.304;6.866;2022-08-19T18:23:16;23.20;99.90
25128;DHT22;13107;51.304;6.866;2022-08-19T18:27:38;23.20;99.90
25128;DHT22;13107;51.304;6.866;2022-08-19T18:31:40;23.00;99.90
25128;DHT22;13107;51.304;6.866;2022-08-19T18:35:46;22.80;99.90
25128;DHT22;13107;51.304;6.866;2022-08-19T18:39:49;22.70;99.90
25128;DHT22;13107;51.304;6.866;2022-08-19T18:44:09;22.70;99.90
25128;DHT22;13107;51.304;6.866;2022-08-19T18:48:30;22.60;99.90
25128;DHT22;13107;51.304;6.866;2022-08-19T18:52:50;22.60;99.90
25128;DHT22;13107;51.304;6.866;2022-08-19T18:56:53;22.60;99.90
25128;DHT22;13107;51.304;6.866;2022-08-19T19:00:56;22.50;99.90
25128;DHT22;13107;51.304;6.866;2022-08-19T19:04:58;22.40;99.90
25128;DHT22;13107;51.304;6.866;2022-08-19T19:09:06;22.40;99.90
25128;DHT22;13107;51.304;6.866;2022-08-19T19:13:08;22.30;99.90
25128;DHT22;13107;51.304;6.866;2022-08-19T19:17:12;22.30;99.90
25128;DHT22;13107;51.304;6.866;2022-08-19T19:21:15;22.20;99.90
25128;DHT22;13107;51.304;6.866;2022-08-19T19:25:16;22.10;99.90
25128;DHT22;13107;51.304;6.866;2022-08-19T19:29:20;22.00;99.90
25128;DHT22;13107;51.304;6.866;2022-08-19T19:33:23;21.90;99.90
25128;DHT22;13107;51.304;6.866;2022-08-19T19:37:25;21.80;99.90
25128;DHT22;13107;51.304;6.866;2022-08-19T19:41:26;21.80;99.90
25128;DHT22;13107;51.304;6.866;2022-08-19T19:45:28;21.80;99.90
25128;DHT22;13107;51.304;6.866;2022-08-19T19:49:30;21.60;99.90
25128;DHT22;13107;51.304;6.866;2022-08-19T19:53:32;21.50;99.90
25128;DHT22;13107;51.304;6.866;2022-08-19T19:57:35;21.40;99.90
25128;DHT22;13107;51.304;6.866;2022-08-19T20:01:40;21.30;99.90
25128;DHT22;13107;51.304;6.866;2022-08-19T20:05:47;21.30;99.90
25128;DHT22;13107;51.304;6.866;2022-08-19T20:09:51;21.20;99.90
25128;DHT22;13107;51.304;6.866;2022-08-19T20:14:08;21.10;99.90
25128;DHT22;13107;51.304;6.866;2022-08-19T20:18:12;21.00;99.90
25128;DHT22;13107;51.304;6.866;2022-08-19T20:22:15;20.90;99.90
25128;DHT22;13107;51.304;6.866;2022-08-19T20:26:17;21.00;99.90
25128;DHT22;13107;51.304;6.866;2022-08-19T20:30:34;21.00;99.90
25128;DHT22;13107;51.304;6.866;2022-08-19T20:34:40;21.30;99.90
25128;DHT22;13107;51.304;6.866;2022-08-19T20:38:41;21.20;99.90
25128;DHT22;13107;51.304;6.866;2022-08-19T20:42:43;21.10;99.90
25128;DHT22;13107;51.304;6.866;2022-08-19T20:46:48;21.00;99.90
25128;DHT22;13107;51.304;6.866;2022-08-19T20:50:56;21.10;99.90
25128;DHT22;13107;51.304;6.866;2022-08-19T20:55:00;21.10;99.90
25128;DHT22;13107;51.304;6.866;2022-08-19T20:59:01;21.10;99.90
25128;DHT22;13107;51.304;6.866;2022-08-19T21:03:05;21.10;99.90
25128;DHT22;13107;51.304;6.866;2022-08-19T21:07:07;21.10;99.90
25128;DHT22;13107;51.304;6.866;2022-08-19T21:11:09;21.00;99.90
25128;DHT22;13107;51.304;6.866;2022-08-19T21:15:11;21.00;99.90
25128;DHT22;13107;51.304;6.866;2022-08-19T21:19:13;21.00;99.90
25128;DHT22;13107;51.304;6.866;2022-08-19T21:23:18;20.90;99.90
25128;DHT22;13107;51.304;6.866;2022-08-19T21:27:20;20.90;99.90
25128;DHT22;13107;51.304;6.866;2022-08-19T21:31:22;20.80;99.90
25128;DHT22;13107;51.304;6.866;2022-08-19T21:35:24;20.90;99.90
25128;DHT22;13107;51.304;6.866;2022-08-19T21:39:26;20.80;99.90
25128;DHT22;13107;51.304;6.866;2022-08-19T21:43:28;20.80;99.90
25128;DHT22;13107;51.304;6.866;2022-08-19T21:47:30;20.80;99.90
25128;DHT22;13107;51.304;6.866;2022-08-19T21:51:31;20.70;99.90
25128;DHT22;13107;51.304;6.866;2022-08-19T21:55:34;20.70;99.90
25128;DHT22;13107;51.304;6.866;2022-08-19T21:59:35;20.60;99.90
25128;DHT22;13107;51.304;6.866;2022-08-19T22:03:37;20.50;99.90
25128;DHT22;13107;51.304;6.866;2022-08-19T22:07:39;20.50;99.90
25128;DHT22;13107;51.304;6.866;2022-08-19T22:11:43;20.50;99.90
25128;DHT22;13107;51.304;6.866;2022-08-19T22:15:45;20.40;99.90
25128;DHT22;13107;51.304;6.866;2022-08-19T22:19:47;20.40;99.90
25128;DHT22;13107;51.304;6.866;2022-08-19T22:23:49;20.30;99.90
25128;DHT22;13107;51.304;6.866;2022-08-19T22:28:04;20.30;99.90
25128;DHT22;13107;51.304;6.866;2022-08-19T22:32:19;20.20;99.90
25128;DHT22;13107;51.304;6.866;2022-08-19T22:36:28;20.20;99.90
25128;DHT22;13107;51.304;6.866;2022-08-19T22:40:35;20.10;99.90
25128;DHT22;13107;51.304;6.866;2022-08-19T22:44:37;20.10;99.90
25128;DHT22;13107;51.304;6.866;2022-08-19T22:48:39;20.10;99.90
25128;DHT22;13107;51.304;6.866;2022-08-19T22:52:41;20.10;99.90
25128;DHT22;13107;51.304;6.866;2022-08-19T22:56:52;20.20;99.90
25128;DHT22;13107;51.304;6.866;2022-08-19T23:00:55;20.10;99.90
25128;DHT22;13107;51.304;6.866;2022-08-19T23:05:00;20.00;99.90
25128;DHT22;13107;51.304;6.866;2022-08-19T23:09:04;20.10;99.90
25128;DHT22;13107;51.304;6.866;2022-08-19T23:13:07;20.10;99.90
25128;DHT22;13107;51.304;6.866;2022-08-19T23:17:09;20.10;99.90
25128;DHT22;13107;51.304;6.866;2022-08-19T23:21:11;20.10;99.90
25128;DHT22;13107;51.304;6.866;2022-08-19T23:25:17;20.10;99.90
25128;DHT22;13107;51.304;6.866;2022-08-19T23:29:20;20.10;99.90
25128;DHT22;13107;51.304;6.866;2022-08-19T23:33:41;20.10;99.90
25128;DHT22;13107;51.304;6.866;2022-08-19T23:37:51;20.10;99.90
25128;DHT22;13107;51.304;6.866;2022-08-19T23:41:53;20.00;99.90
25128;DHT22;13107;51.304;6.866;2022-08-19T23:45:58;20.10;99.90
25128;DHT22;13107;51.304;6.866;2022-08-19T23:50:02;20.10;99.90
25128;DHT22;13107;51.304;6.866;2022-08-19T23:54:06;20.00;99.90
25128;DHT22;13107;51.304;6.866;2022-08-19T23:58:09;20.00;99.90
